Terminal Aerodrome Forecast
Issued by NWS

Home | Current Version | Previous Version | Graphics & Text | Print | Product List | Glossary On
Versions: 1 2 3 4 5 6 7 8 9 10 11 12 13 14 15 16
000
FTUS43 KFGF 211100
TAFBJI
TAF
KBJI 211120Z 2112/2212 27012KT P6SM SKC
      TEMPO 2113/2114 BKN080
     FM211400 29013KT P6SM BKN080
      TEMPO 2114/2116 BKN015
     FM211600 31015KT P6SM BKN040
     FM220000 32006KT P6SM SKC=

USA.gov is the U.S. government's official web portal to all federal, state and local government web resources and services.